Tiempo atmosférico en la estación meteorológica de Telde, Melenara, Las Palmas (9 m.)



Fecha
DESCASC
Temp. máxima en grados centígrados (hora)
DESCASC
Temp. mínima en grados centígrados (hora)
DESCASC
Temp. media en grados centígrados
DESCASC
Racha de viento máxima en m/sg (hora)
DESCASC
Velocidad máxima media en intervalos de 10 minutos(hora)
DESCASC
Precipitaciones diarias en mm
DESCASC
Precipitaciones de 00:00 a 06:00 en mm
DESCASC
Precipitaciones de 06:00 a 12:00 en mm
DESCASC
Precipitaciones de 12:00 a 18:00 en mm
DESCASC
Precipitaciones de 18:00 a 24:00 en mm
DESCASC
06-07-2020 26.5 (14:30) 22.1 (08:10) 24.3 14.44 (15:40) 8.61 (17:40) 0 0 0 0 0
05-07-2020 26.1 (12:50) 21.1 (05:20) 23.6 15.56 (00:20) 9.17 (18:20) 0 0 0 0 0
04-07-2020 24.9 (15:50) 21.2 (05:40) 23.1 14.17 (20:40) 9.17 (13:50) 0 0 0 0 0
03-07-2020 -- (--) -- (--) -- -- (--) -- (--) -- 0 -- 0 0
02-07-2020 24 (12:00) 20.8 (00:00) 22.4 15.28 (07:50) 9.17 (07:40) 0 0 0 0 0
01-07-2020 25.7 (15:50) 21.5 (00:00) 23.6 13.89 (14:40) 9.17 (15:00) 0 0 0 0 0
30-06-2020 25.3 (13:10) 21.9 (00:00) 23.6 11.11 (02:00) 6.94 (09:50) 0 0 0 0 0
29-06-2020 25.9 (16:00) 20.9 (00:00) 23.4 12.78 (19:20) 8.61 (19:30) 0 0 0 0 0
28-06-2020 25.3 (16:10) 22.1 (00:00) 23.7 13.06 (16:30) 8.33 (20:00) 0 0 0 0 0
27-06-2020 24.9 (17:10) 21.1 (00:00) 23 12.5 (15:50) 7.78 (16:40) 0 0 0 0 0
26-06-2020 25.2 (15:40) 21.4 (00:00) 23.3 12.78 (16:00) 8.33 (16:00) 0 0 0 0 0
25-06-2020 25.8 (15:00) 21.8 (00:00) 23.8 12.5 (14:40) 7.5 (13:30) 0 0 0 0 0
24-06-2020 25.5 (13:30) 21.7 (00:00) 23.6 12.5 (11:30) 7.78 (09:30) 0 0 0 0 0
23-06-2020 25.9 (15:20) 21.5 (00:00) 23.7 12.5 (16:20) 7.78 (13:30) 0 0 0 0 0
22-06-2020 25.8 (16:20) 21.4 (00:00) 23.6 13.33 (19:30) 7.78 (14:00) 0 0 0 0 0
21-06-2020 26.3 (16:00) 21.6 (00:00) 23.9 12.22 (16:30) 6.94 (16:20) 0 0 0 0 0
20-06-2020 25.5 (16:20) 21.7 (00:00) 23.6 12.22 (15:40) 7.22 (14:20) 0 0 0 0 0
19-06-2020 25.8 (15:50) 21 (00:00) 23.4 10.83 (21:50) 6.67 (21:50) 1 1 0 0 0
18-06-2020 26.6 (13:20) 21.3 (00:00) 23.9 12.78 (13:50) 7.5 (12:20) 0 0 0 0 0
17-06-2020 25.5 (12:10) 22.2 (00:00) 23.9 10.83 (00:20) 6.11 (02:50) 0 0 0 0 0
16-06-2020 25.9 (18:50) 21.4 (00:00) 23.6 10.28 (23:10) 6.67 (23:50) 0 0 0 0 0
15-06-2020 25.3 (16:40) 20.8 (00:00) 23 9.72 (18:40) 6.94 (16:10) 0.2 0.2 0 0 0
14-06-2020 24.7 (12:30) 18.9 (00:00) 21.8 8.89 (21:00) 5 (19:10) 0 0 0 0 0
13-06-2020 24.5 (16:30) 18.7 (00:00) 21.6 6.39 (18:40) 4.17 (19:20) 0 0 0 0 0
12-06-2020 23.5 (11:20) 20.2 (00:00) 21.9 9.17 (14:40) 5.83 (15:00) 0 0 0 0 0
11-06-2020 22.4 (13:40) 21.1 (00:00) 21.8 8.33 (20:10) 4.17 (01:20) 0 0 0 0 0
10-06-2020 24.4 (15:50) 21.2 (00:00) 22.8 8.89 (21:40) 5.83 (01:10) 0 0 0 0 0
09-06-2020 25.4 (13:40) 21.5 (00:00) 23.4 9.44 (11:00) 6.39 (11:00) 0 0 0 0 0
08-06-2020 25.6 (14:00) 19.8 (04:50) 22.7 10.28 (14:30) 6.39 (14:20) 0 0 0 0 0
07-06-2020 26.1 (14:30) 20.5 (00:00) 23.3 10.56 (15:50) 6.39 (16:40) 0 0 0 0 0

Gráficas

Temp. máximas Temp. mínimas Temp. medias Precipitaciones Rachas de viento máximas Velocidades máximas media en intervalos de 10 minutos

Datos horarios

Fecha y hora oficial Temperatura (ºC) Velocidad del viento (km/h) Dirección del viento Racha (km/h) Dirección de racha Precipitación (mm) Presión (hPa) Tendencia (hPa) Humedad (%)
2020-07-06 23:00:00 22.5 22 Norte 44 Norte 0 -- -- 82
2020-07-06 22:00:00 22.7 24 Norte 41 Norte 0 -- -- 81
2020-07-06 21:00:00 22.8 21 Norte 40 Norte 0 -- -- 80
2020-07-06 20:00:00 23.6 23 Norte 46 Norte 0 -- -- 77
2020-07-06 19:00:00 24.5 23 Norte 44 Norte 0 -- -- 73
2020-07-06 18:00:00 25 27 Norte 47 Norte 0 -- -- 71
2020-07-06 17:00:00 25.6 24 Norte 45 Norte 0 -- -- 69
2020-07-06 16:00:00 25.6 23 Norte 52 Norte 0 -- -- 69
2020-07-06 15:00:00 26.1 24 Norte 45 Norte 0 -- -- 66
2020-07-06 14:00:00 26.4 26 Norte 43 Norte 0 -- -- 66
2020-07-06 13:00:00 25.3 25 Norte 45 Noroeste 0 -- -- 71
2020-07-06 12:00:00 24.9 25 Norte 46 Noroeste 0 -- -- 72
2020-07-06 11:00:00 24.4 25 Norte 45 Norte 0 -- -- 74
2020-07-06 10:00:00 23.8 29 Norte 46 Norte 0 -- -- 74
2020-07-06 09:00:00 22.5 26 Norte 44 Norte 0 -- -- 79
2020-07-06 08:00:00 22.2 23 Norte 40 Norte 0 -- -- 79
2020-07-06 07:00:00 22.8 22 Norte 39 Norte 0 -- -- 70
2020-07-06 06:00:00 22.6 22 Norte 41 Norte 0 -- -- 71
2020-07-06 05:00:00 23.3 21 Norte 38 Norte 0 -- -- 63
2020-07-06 04:00:00 23.5 19 Norte 37 Norte 0 -- -- 60
2020-07-06 03:00:00 23.6 18 Norte 33 Norte 0 -- -- 60
2020-07-06 02:00:00 24 21 Norte 42 Noroeste 0 -- -- 59
2020-07-06 01:00:00 23.4 21 Noroeste 43 Noroeste 0 -- -- 65
2020-07-06 00:00:00 23.4 26 Noroeste 49 Noroeste 0 -- -- 65
2020-07-05 23:00:00 23.9 26 Noroeste 48 Noroeste 0 -- -- 61
2020-07-05 22:00:00 23.6 21 Noroeste 46 Noroeste 0 -- -- 63
2020-07-05 21:00:00 22.7 25 Norte 48 Noroeste 0 -- -- 73
2020-07-05 20:00:00 23.6 28 Norte 50 Norte 0 -- -- 69
2020-07-05 19:00:00 24.4 28 Norte 49 Norte 0 -- -- 67
2020-07-05 18:00:00 25.1 28 Norte 47 Noroeste 0 -- -- 65
2020-07-05 17:00:00 25.6 28 Norte 53 Norte 0 -- -- 63
2020-07-05 16:00:00 25.4 29 Norte 52 Norte 0 -- -- 63
2020-07-05 15:00:00 25.4 29 Norte 51 Norte 0 -- -- 63
2020-07-05 14:00:00 25.3 23 Norte 49 Noroeste 0 -- -- 63
2020-07-05 13:00:00 25.6 27 Norte 49 Noroeste 0 -- -- 60
2020-07-05 12:00:00 24.4 29 Norte 46 Norte 0 -- -- 65
2020-07-05 11:00:00 23.8 26 Norte 44 Norte 0 -- -- 67
2020-07-05 10:00:00 22.6 30 Norte 45 Norte 0 -- -- 69
2020-07-05 09:00:00 21.9 27 Norte 41 Norte 0 -- -- 71
2020-07-05 08:00:00 21.2 23 Norte 38 Norte 0 -- -- 74
2020-07-05 07:00:00 21.1 23 Norte 45 Norte 0 -- -- 73
2020-07-05 06:00:00 21.1 26 Norte 45 Norte 0 -- -- 73
2020-07-05 05:00:00 21.2 26 Norte 49 Norte 0 -- -- 72
2020-07-05 04:00:00 21.3 26 Norte 46 Noroeste 0 -- -- 72
2020-07-05 03:00:00 21.4 22 Norte 47 Noroeste 0 -- -- 72
2020-07-05 02:00:00 21.4 27 Norte 46 Noroeste 0 -- -- 71
2020-07-05 01:00:00 21.6 25 Norte 56 Norte 0 -- -- 72
2020-07-05 00:00:00 21.7 33 Norte 51 Norte 0 -- -- 73
2020-07-04 23:00:00 21.6 28 Norte 49 Norte 0 -- -- 72
2020-07-04 22:00:00 21.5 29 Norte 46 Norte 0 -- -- 71
2020-07-04 21:00:00 21.7 28 Norte 51 Norte 0 -- -- 70
2020-07-04 20:00:00 22.8 24 Noroeste 49 Norte 0 -- -- 67
2020-07-04 19:00:00 23.1 22 Norte 49 Norte 0 -- -- 66
2020-07-04 18:00:00 23.6 24 Norte 46 Norte 0 -- -- 63
2020-07-04 17:00:00 24.3 23 Norte 47 Norte 0 -- -- 63
2020-07-04 16:00:00 24.9 26 Norte 46 Norte 0 -- -- 60
2020-07-04 15:00:00 24.5 26 Norte 48 Noroeste 0 -- -- 62
2020-07-04 14:00:00 24 31 Norte 48 Norte 0 -- -- 63
2020-07-04 13:00:00 23.8 28 Norte 47 Norte 0 -- -- 64
2020-07-04 12:00:00 23.4 27 Norte 47 Norte 0 -- -- 66
2020-07-04 11:00:00 22.4 29 Norte 44 Norte 0 -- -- 70
2020-07-04 10:00:00 21.9 26 Norte 45 Norte 0 -- -- 71
2020-07-04 09:00:00 21.5 29 Norte 45 Noroeste 0 -- -- 72
2020-07-04 08:00:00 21.3 26 Norte 46 Norte 0 -- -- 73
2020-07-04 07:00:00 21.3 27 Norte 44 Noroeste 0 -- -- 73
2020-07-04 06:00:00 21.2 23 Norte 45 Norte 0 -- -- 74
2020-07-04 05:00:00 21.3 26 Norte 45 Norte 0 -- -- 75
2020-07-04 04:00:00 21.5 29 Norte 44 Norte 0 -- -- 76
2020-07-04 03:00:00 21.5 30 Norte 47 Norte 0 -- -- 74
2020-07-04 02:00:00 21.6 25 Norte 46 Norte 0 -- -- 74
2020-07-04 01:00:00 21.7 25 Norte 48 Noroeste 0 -- -- 74
2020-07-04 00:00:00 21.8 26 Norte 45 Norte 0 -- -- 74
2020-07-03 23:00:00 21.9 28 Norte 49 Norte 0 -- -- 75
2020-07-03 22:00:00 21.9 25 Norte 46 Noroeste 0 -- -- 74
2020-07-03 21:00:00 22.2 28 Norte 51 Norte 0 -- -- 72
2020-07-03 20:00:00 23.1 30 Norte 53 Noroeste 0 -- -- 70
2020-07-03 19:00:00 23.8 31 Norte 50 Noroeste 0 -- -- 66
2020-07-03 18:00:00 24.3 26 Norte 47 Norte 0 -- -- 66
2020-07-03 17:00:00 25 25 Norte 48 Norte 0 -- -- 64
2020-07-03 16:00:00 25.1 26 Norte 46 Noroeste 0 -- -- 65
2020-07-03 15:00:00 25.4 24 Norte 48 Norte 0 -- -- 66
2020-07-03 14:00:00 24.9 29 Norte 45 Noroeste 0 -- -- 67
2020-07-03 13:00:00 25.1 24 Norte -- -- -- -- -- 66
2020-07-03 12:00:00 -- -- -- -- -- -- -- -- --
2020-07-03 11:00:00 -- -- -- -- -- -- -- -- --
2020-07-03 10:00:00 22.8 28 Norte 44 Norte 0 -- -- 72
2020-07-03 09:00:00 22.3 24 Norte 42 Norte 0 -- -- 76
2020-07-03 08:00:00 21.8 23 Norte 44 Norte 0 -- -- 75
2020-07-03 07:00:00 21.8 23 Norte 40 Norte 0 -- -- 78
2020-07-03 06:00:00 21.5 26 Norte 42 Norte 0 -- -- 77
2020-07-03 05:00:00 21.7 24 Norte 48 Norte 0 -- -- 77
2020-07-03 04:00:00 21.7 21 Norte 42 Norte 0 -- -- 77
2020-07-03 03:00:00 21.8 25 Norte 44 Norte 0 -- -- 76
2020-07-03 02:00:00 21.8 27 Norte 42 Norte 0 -- -- 78
2020-07-03 01:00:00 22.1 21 Norte 42 Norte 0 -- -- 74
2020-07-03 00:00:00 22.2 22 Noroeste 45 Norte 0 -- -- 74
2020-07-02 23:00:00 22.1 29 Norte 43 Noroeste 0 -- -- 76
2020-07-02 22:00:00 22.3 26 Norte 48 Noroeste 0 -- -- 74
2020-07-02 21:00:00 22.4 24 Norte 41 Noroeste 0 -- -- 75
2020-07-02 20:00:00 22.7 20 Norte 44 Norte 0 -- -- 76
2020-07-02 19:00:00 23.2 23 Norte 48 Norte 0 -- -- 73
2020-07-02 18:00:00 23.5 25 Norte 47 Noroeste 0 -- -- 71
2020-07-02 17:00:00 23.4 24 Norte 46 Norte 0 -- -- 71
2020-07-02 16:00:00 23.7 23 Norte 45 Norte 0 -- -- 68
2020-07-02 15:00:00 23.2 24 Norte 49 Noroeste 0 -- -- 70
2020-07-02 14:00:00 23.6 29 Norte 48 Norte 0 -- -- 71
2020-07-02 13:00:00 23.4 26 Norte 47 Norte 0 -- -- 70
2020-07-02 12:00:00 24 19 Norte 40 Norte 0 -- -- 68
2020-07-02 11:00:00 23.3 28 Norte 44 Noroeste 0 -- -- 70
2020-07-02 10:00:00 22.5 23 Norte 44 Noroeste 0 -- -- 73
2020-07-02 09:00:00 22 20 Norte 44 Norte 0 -- -- 75
2020-07-02 08:00:00 21.7 26 Norte 55 Norte 0 -- -- 74
2020-07-02 07:00:00 21.8 24 Norte 44 Noroeste 0 -- -- 76
2020-07-02 06:00:00 21.2 25 Norte 42 Norte 0 -- -- 79
2020-07-02 05:00:00 21.5 24 Noroeste 39 Norte 0 -- -- 79
2020-07-02 04:00:00 20.8 21 Noroeste 42 Norte 0 -- -- 84
2020-07-02 03:00:00 21.8 24 Norte 37 Norte 0 -- -- 77
2020-07-02 02:00:00 21.9 18 Norte 42 Norte 0 -- -- 76
2020-07-02 01:00:00 22.1 24 Norte 41 Norte 0 -- -- 74
2020-07-02 00:00:00 22.2 28 Norte 44 Norte 0 -- -- 74
2020-07-01 23:00:00 22.3 24 Norte 44 Norte 0 -- -- 72
2020-07-01 22:00:00 22.4 26 Norte 46 Norte 0 -- -- 72
2020-07-01 21:00:00 22.6 26 Norte 44 Norte 0 -- -- 72
2020-07-01 20:00:00 23.1 23 Norte 42 Norte 0 -- -- 72
2020-07-01 19:00:00 23.6 21 Norte 39 Norte 0 -- -- 68
2020-07-01 18:00:00 24.1 23 Norte 41 Noroeste 0 -- -- 67
2020-07-01 17:00:00 24.4 22 Norte 44 Norte 0 -- -- 66
2020-07-01 16:00:00 25.4 24 Norte 48 Norte 0 -- -- 62
2020-07-01 15:00:00 25.2 33 Norte 50 Norte 0 -- -- 62
2020-07-01 14:00:00 25.1 27 Norte 41 Norte 0 -- -- 61
2020-07-01 13:00:00 24.4 23 Norte 41 Noroeste 0 -- -- 66
2020-07-01 12:00:00 24.4 21 Norte 39 Noroeste 0 -- -- 64
2020-07-01 11:00:00 23.3 24 Norte 40 Norte 0 -- -- 68
2020-07-01 10:00:00 22.7 21 Norte 35 Norte 0 -- -- 70
2020-07-01 09:00:00 21.6 20 Norte 35 Norte 0 -- -- 77
2020-07-01 08:00:00 21.6 15 Norte 31 Norte 0 -- -- 73
2020-07-01 07:00:00 21.5 20 Norte 37 Norte 0 -- -- 75
2020-07-01 06:00:00 21.6 18 Norte 34 Norte 0 -- -- 74
2020-07-01 05:00:00 21.7 20 Norte 35 Noroeste 0 -- -- 75
2020-07-01 04:00:00 21.7 19 Norte 34 Norte 0 -- -- 72
2020-07-01 03:00:00 21.8 21 Norte 37 Norte 0 -- -- 75
2020-07-01 02:00:00 21.9 19 Norte 35 Noroeste 0 -- -- 72
2020-07-01 01:00:00 22.1 18 Norte 35 Norte 0 -- -- 70
2020-07-01 00:00:00 22.3 23 Norte 38 Norte 0 -- -- 71
2020-06-30 23:00:00 22.2 19 Norte 34 Norte 0 -- -- 71
2020-06-30 22:00:00 22.2 18 Norte 39 Noroeste 0 -- -- 72
2020-06-30 21:00:00 22.7 20 Norte 39 Noroeste 0 -- -- 73
2020-06-30 20:00:00 23.2 19 Norte 38 Noroeste 0 -- -- 71
2020-06-30 19:00:00 23.9 17 Norte 38 Nordeste 0 -- -- 69
2020-06-30 18:00:00 24.5 18 Norte 33 Norte 0 -- -- 67
2020-06-30 17:00:00 24.5 20 Norte 38 Norte 0 -- -- 68
2020-06-30 16:00:00 24.7 22 Norte 40 Noroeste 0 -- -- 67
2020-06-30 15:00:00 24.5 24 Norte 40 Norte 0 -- -- 67
2020-06-30 14:00:00 25.3 21 Norte 37 Norte 0 -- -- 65
2020-06-30 13:00:00 25 21 Norte 38 Norte 0 -- -- 63
2020-06-30 12:00:00 24.7 18 Norte 35 Norte 0 -- -- 69
2020-06-30 11:00:00 23.7 21 Norte 37 Norte 0 -- -- 73
2020-06-30 10:00:00 23.4 19 Norte 36 Norte 0 -- -- 68
2020-06-30 09:00:00 22.3 20 Norte 35 Noroeste 0 -- -- 78
2020-06-30 08:00:00 22 18 Norte 33 Norte 0 -- -- 75
2020-06-30 07:00:00 21.9 18 Norte 34 Noroeste 0 -- -- 72
2020-06-30 06:00:00 22 18 Norte 33 Norte 0 -- -- 77
2020-06-30 05:00:00 22.3 17 Norte 34 Norte 0 -- -- 74
2020-06-30 04:00:00 22.1 17 Norte 33 Norte 0 -- -- 75
2020-06-30 03:00:00 22.1 21 Norte 36 Norte 0 -- -- 73
2020-06-30 02:00:00 22.2 22 Norte 40 Norte 0 -- -- 74
2020-06-30 01:00:00 22.3 20 Noroeste 35 Norte 0 -- -- 71
2020-06-30 00:00:00 22.5 19 Norte 38 Norte 0 -- -- 68
2020-06-29 23:00:00 22.7 19 Norte 41 Norte 0 -- -- 66
2020-06-29 22:00:00 22.7 22 Norte 44 Norte 0 -- -- 70
2020-06-29 21:00:00 23.1 24 Norte 41 Norte 0 -- -- 67
2020-06-29 20:00:00 23.1 28 Norte 46 Norte 0 -- -- 73
2020-06-29 19:00:00 23.8 27 Norte 41 Norte 0 -- -- 70
2020-06-29 18:00:00 24.7 24 Norte 46 Norte 0 -- -- 66
2020-06-29 17:00:00 24.5 26 Norte 44 Norte 0 -- -- 66
2020-06-29 16:00:00 25.9 23 Norte 45 Norte 0 -- -- 63
2020-06-29 15:00:00 25.1 26 Norte 46 Norte 0 -- -- 63
2020-06-29 14:00:00 25.3 27 Norte 40 Norte 0 -- -- 63
2020-06-29 13:00:00 23.3 23 Norte 40 Norte 0 -- -- 70
2020-06-29 12:00:00 24.3 27 Norte 44 Norte 0 -- -- 66
2020-06-29 11:00:00 22.9 23 Norte 43 Norte 0 -- -- 73
2020-06-29 10:00:00 22.7 23 Norte 39 Norte 0 -- -- 77
2020-06-29 09:00:00 22.1 19 Noroeste 38 Noroeste 0 -- -- 74
2020-06-29 08:00:00 21.5 18 Noroeste 31 Noroeste 0 -- -- 79
2020-06-29 07:00:00 21.3 19 Noroeste 35 Noroeste 0 -- -- 77
2020-06-29 06:00:00 20.9 17 Noroeste 40 Norte 0 -- -- 79
2020-06-29 05:00:00 21.4 17 Norte 38 Norte 0 -- -- 80
2020-06-29 04:00:00 22 19 Noroeste 44 Noroeste 0 -- -- 76
2020-06-29 03:00:00 22.3 19 Noroeste 39 Noroeste 0 -- -- 68
2020-06-29 02:00:00 22.1 24 Norte 41 Norte 0 -- -- 72
2020-06-29 01:00:00 22.5 23 Norte 39 Norte 0 -- -- 76
2020-06-29 00:00:00 22.1 19 Norte 36 Noroeste 0 -- -- 76
2020-06-28 23:00:00 22.5 19 Noroeste 39 Noroeste 0 -- -- 72
2020-06-28 22:00:00 22.9 21 Norte 39 Norte 0 -- -- 67
2020-06-28 21:00:00 22.8 22 Norte 41 Noroeste 0 -- -- 74
2020-06-28 20:00:00 23.1 30 Norte 44 Norte 0 -- -- 71
2020-06-28 19:00:00 23.9 24 Norte 43 Norte 0 -- -- 62
2020-06-28 18:00:00 24.2 25 Norte 43 Norte 0 -- -- 65
2020-06-28 17:00:00 24.9 23 Norte 47 Norte 0 -- -- 62
2020-06-28 16:00:00 24.9 27 Norte 44 Norte 0 -- -- 62
2020-06-28 15:00:00 24.1 23 Norte 46 Norte 0 -- -- 68
2020-06-28 14:00:00 25.1 19 Norte 44 Norte 0 -- -- 62
2020-06-28 13:00:00 23.9 22 Norte 40 Norte 0 -- -- 66
2020-06-28 12:00:00 23.2 24 Norte 39 Norte 0 -- -- 71
2020-06-28 11:00:00 23.2 24 Norte 40 Norte 0 -- -- 69
2020-06-28 10:00:00 22.7 23 Norte 39 Norte 0 -- -- 66
2020-06-28 09:00:00 22.5 21 Norte 39 Norte 0 -- -- 66
2020-06-28 08:00:00 22.1 23 Norte 39 Noroeste 0 -- -- 68
2020-06-28 07:00:00 22.2 19 Norte 37 Norte 0 -- -- 68
2020-06-28 06:00:00 22.2 21 Norte 36 Norte 0 -- -- 66
2020-06-28 05:00:00 22.1 21 Norte 38 Norte 0 -- -- 65
2020-06-28 04:00:00 22.2 18 Norte 34 Noroeste 0 -- -- 68
2020-06-28 03:00:00 22.3 19 Norte 35 Norte 0 -- -- 68
2020-06-28 02:00:00 22.2 19 Norte 35 Norte 0 -- -- 69
2020-06-28 01:00:00 22.4 17 Norte 35 Norte 0 -- -- 69
2020-06-28 00:00:00 22.3 20 Norte 34 Norte 0 -- -- 64
2020-06-27 23:00:00 22.4 17 Norte 39 Norte 0 -- -- 66
2020-06-27 22:00:00 22.5 21 Norte 38 Norte 0 -- -- 66
2020-06-27 21:00:00 22.6 21 Norte 41 Norte 0 -- -- 64
2020-06-27 20:00:00 23.1 23 Norte 41 Norte 0 -- -- 63
2020-06-27 19:00:00 23.9 21 Norte 42 Norte 0 -- -- 59
2020-06-27 18:00:00 24.5 22 Norte 44 Norte 0 -- -- 60
2020-06-27 17:00:00 24.7 25 Norte 44 Noroeste 0 -- -- 56
2020-06-27 16:00:00 24.7 24 Norte 45 Norte 0 -- -- 54
2020-06-27 15:00:00 24.5 24 Norte 44 Norte 0 -- -- 57
2020-06-27 14:00:00 24.6 22 Norte 41 Norte 0 -- -- 56
2020-06-27 13:00:00 23.9 20 Norte 36 Norte 0 -- -- 58
2020-06-27 12:00:00 23.1 21 Norte 36 Norte 0 -- -- 61
2020-06-27 11:00:00 22.3 23 Norte 36 Norte 0 -- -- 62
2020-06-27 10:00:00 22 20 Norte 37 Norte 0 -- -- 62
2020-06-27 09:00:00 21.6 18 Norte 35 Norte 0 -- -- 63
2020-06-27 08:00:00 21.1 21 Norte 36 Noroeste 0 -- -- 64
2020-06-27 07:00:00 21.1 22 Norte 40 Norte 0 -- -- 64
2020-06-27 06:00:00 21.1 19 Norte 41 Norte 0 -- -- 64
2020-06-27 05:00:00 21.3 21 Norte 41 Norte 0 -- -- 67
2020-06-27 04:00:00 21.5 19 Noroeste 38 Norte 0 -- -- 65
2020-06-27 03:00:00 21.5 21 Norte 36 Norte 0 -- -- 66
2020-06-27 02:00:00 21.8 19 Norte 36 Noroeste 0 -- -- 66
2020-06-27 01:00:00 21.8 18 Norte 37 Norte 0 -- -- 66
2020-06-27 00:00:00 21.9 24 Norte 38 Norte 0 -- -- 66
2020-06-26 23:00:00 22.1 21 Norte 37 Norte 0 -- -- 68
2020-06-26 22:00:00 22.1 21 Norte 39 Norte 0 -- -- 66
2020-06-26 21:00:00 22.2 23 Norte 39 Norte 0 -- -- 67
2020-06-26 20:00:00 22.6 23 Norte 41 Norte 0 -- -- 73
2020-06-26 19:00:00 23.5 22 Norte 42 Norte 0 -- -- 66
2020-06-26 18:00:00 24.6 23 Norte 42 Norte 0 -- -- 64
2020-06-26 17:00:00 24.4 27 Norte 42 Norte 0 -- -- 64
2020-06-26 16:00:00 24.7 30 Norte 46 Norte 0 -- -- 61
2020-06-26 15:00:00 25.1 22 Norte 41 Norte 0 -- -- 59
2020-06-26 14:00:00 24.6 24 Norte 42 Noroeste 0 -- -- 59
2020-06-26 13:00:00 23.9 23 Norte 40 Noroeste 0 -- -- 64
2020-06-26 12:00:00 24.4 20 Norte 38 Norte 0 -- -- 58
2020-06-26 11:00:00 23.3 21 Norte 39 Norte 0 -- -- 57
2020-06-26 10:00:00 22.8 20 Norte 41 Noroeste 0 -- -- 60
2020-06-26 09:00:00 22.3 22 Norte 37 Noroeste 0 -- -- 63
2020-06-26 08:00:00 21.6 23 Norte 40 Norte 0 -- -- 66
2020-06-26 07:00:00 21.7 19 Norte 37 Noroeste 0 -- -- 67
2020-06-26 06:00:00 21.6 23 Norte 41 Norte 0 -- -- 73
2020-06-26 05:00:00 21.7 21 Norte 36 Norte 0 -- -- 72
2020-06-26 04:00:00 21.6 17 Norte 33 Norte 0 -- -- 71
2020-06-26 03:00:00 21.5 21 Norte 36 Norte 0 -- -- 70
2020-06-26 02:00:00 21.7 17 Noroeste 34 Norte 0 -- -- 68
2020-06-26 01:00:00 22 17 Norte 32 Norte 0 -- -- 70
2020-06-26 00:00:00 22 16 Noroeste 36 Noroeste 0 -- -- 67
2020-06-25 23:00:00 22.4 24 Norte 41 Norte 0 -- -- 71
2020-06-25 22:00:00 22.2 19 Noroeste 40 Norte 0 -- -- 66
2020-06-25 21:00:00 22.3 23 Norte 39 Norte 0 -- -- 68
2020-06-25 20:00:00 22.8 18 Norte 36 Norte 0 -- -- 69
2020-06-25 19:00:00 23.5 23 Norte 43 Noroeste 0 -- -- 62
2020-06-25 18:00:00 23.7 24 Norte 41 Norte 0 -- -- 61
2020-06-25 17:00:00 24.4 23 Norte 39 Noroeste 0 -- -- 61
2020-06-25 16:00:00 24.7 21 Norte 41 Norte 0 -- -- 59
2020-06-25 15:00:00 25.8 23 Norte 45 Norte 0 -- -- 54
2020-06-25 14:00:00 25.2 25 Norte 43 Norte 0 -- -- 57
2020-06-25 13:00:00 25 24 Norte 40 Noroeste 0 -- -- 58
2020-06-25 12:00:00 23.8 23 Norte 38 Norte 0 -- -- 62
2020-06-25 11:00:00 23.4 21 Norte 40 Norte 0 -- -- 60
2020-06-25 10:00:00 22.4 15 Norte 36 Norte 0 -- -- 67
2020-06-25 09:00:00 22.2 21 Norte 34 Noroeste 0 -- -- 63
2020-06-25 08:00:00 21.9 19 Norte 35 Noroeste 0 -- -- 70
2020-06-25 07:00:00 22.1 20 Norte 37 Norte 0 -- -- 62
2020-06-25 06:00:00 22 18 Noroeste 38 Norte 0 -- -- 62
2020-06-25 05:00:00 21.9 18 Norte 36 Norte 0 -- -- 68
2020-06-25 04:00:00 21.9 19 Norte 37 Noroeste 0 -- -- 68
2020-06-25 03:00:00 22.1 23 Norte 39 Norte 0 -- -- 65
2020-06-25 02:00:00 22.1 23 Norte 38 Norte 0 -- -- 66
2020-06-25 01:00:00 22 22 Norte 39 Norte 0 -- -- 71
2020-06-25 00:00:00 22.1 23 Norte 43 Norte 0 -- -- 67
2020-06-24 23:00:00 22.2 27 Norte 42 Norte 0 -- -- 73
2020-06-24 22:00:00 22.5 24 Norte 43 Noroeste 0 -- -- 70
2020-06-24 21:00:00 22.5 27 Norte 42 Norte 0 -- -- 71
2020-06-24 20:00:00 23.2 23 Norte 40 Norte 0 -- -- 67
2020-06-24 19:00:00 23.7 21 Norte 39 Noroeste 0 -- -- 66
2020-06-24 18:00:00 24.7 18 Norte 38 Norte 0 -- -- 59
2020-06-24 17:00:00 24.4 20 Norte 37 Noroeste 0 -- -- 62
2020-06-24 16:00:00 24.5 24 Norte 40 Norte 0 -- -- 58
2020-06-24 15:00:00 24.6 24 Norte 38 Norte 0 -- -- 60
2020-06-24 14:00:00 23.8 21 Norte 39 Norte 0 -- -- 65
2020-06-24 13:00:00 24.9 23 Norte 45 Norte 0 -- -- 56
2020-06-24 12:00:00 24.3 24 Norte 45 Norte 0 -- -- 59
2020-06-24 11:00:00 23 21 Norte 42 Norte 0 -- -- 61
2020-06-24 10:00:00 22.5 27 Norte 44 Norte 0 -- -- 64
2020-06-24 09:00:00 22.2 25 Norte 41 Norte 0 -- -- 64
2020-06-24 08:00:00 21.8 26 Norte 41 Norte 0 -- -- 65
2020-06-24 07:00:00 21.7 18 Norte 40 Norte 0 -- -- 67
2020-06-24 06:00:00 21.7 21 Norte 41 Norte 0 -- -- 66
2020-06-24 05:00:00 21.8 24 Norte 40 Norte 0 -- -- 65
2020-06-24 04:00:00 22 24 Norte 38 Norte 0 -- -- 68
2020-06-24 03:00:00 21.9 19 Norte 37 Norte 0 -- -- 66
2020-06-24 02:00:00 22.1 22 Norte 37 Norte 0 -- -- 67
2020-06-24 01:00:00 22.1 21 Norte 36 Norte 0 -- -- 67
2020-06-24 00:00:00 22.3 17 Norte 38 Norte 0 -- -- 66
2020-06-23 23:00:00 22.2 21 Norte 35 Norte 0 -- -- 66
2020-06-23 22:00:00 22.3 18 Norte 37 Noroeste 0 -- -- 67
2020-06-23 21:00:00 22.5 20 Norte 36 Norte 0 -- -- 67
2020-06-23 20:00:00 22.9 19 Norte 37 Norte 0 -- -- 66
2020-06-23 19:00:00 23.2 23 Norte 39 Norte 0 -- -- 63
2020-06-23 18:00:00 24.1 20 Norte 37 Norte 0 -- -- 65
2020-06-23 17:00:00 25 21 Norte 45 Norte 0 -- -- 59
2020-06-23 16:00:00 25.6 22 Norte 42 Norte 0 -- -- 59
2020-06-23 15:00:00 25.6 24 Norte 43 Norte 0 -- -- 57
2020-06-23 14:00:00 24.7 24 Norte 42 Norte 0 -- -- 63
2020-06-23 13:00:00 25.2 24 Norte 41 Norte 0 -- -- 61
2020-06-23 12:00:00 24.9 23 Norte 45 Norte 0 -- -- 60
2020-06-23 11:00:00 23.8 20 Norte 36 Norte 0 -- -- 61
2020-06-23 10:00:00 23.3 21 Noroeste 40 Norte 0 -- -- 62
2020-06-23 09:00:00 22.4 17 Norte 39 Norte 0 -- -- 64
2020-06-23 08:00:00 21.9 18 Norte 36 Norte 0 -- -- 67
2020-06-23 07:00:00 21.6 18 Noroeste 38 Noroeste 0 -- -- 67
2020-06-23 06:00:00 21.9 21 Norte 36 Norte 0 -- -- 68
2020-06-23 05:00:00 21.8 18 Norte 37 Norte 0 -- -- 68
2020-06-23 04:00:00 21.8 18 Norte 31 Noroeste 0 -- -- 67
2020-06-23 03:00:00 22 20 Norte 33 Norte 0 -- -- 69
2020-06-23 02:00:00 22 19 Noroeste 38 Norte 0 -- -- 67
2020-06-23 01:00:00 22.2 21 Norte 35 Norte 0 -- -- 68
2020-06-23 00:00:00 22.2 23 Norte 37 Norte 0 -- -- 67
2020-06-22 23:00:00 22.3 17 Norte 37 Noroeste 0 -- -- 68
2020-06-22 22:00:00 22.2 21 Noroeste 43 Norte 0 -- -- 67
2020-06-22 21:00:00 22.5 20 Norte 43 Norte 0 -- -- 67
2020-06-22 20:00:00 23.4 22 Norte 48 Norte 0 -- -- 65
2020-06-22 19:00:00 24.2 26 Norte 43 Norte 0 -- -- 62
2020-06-22 18:00:00 24.8 27 Norte 43 Noroeste 0 -- -- 60
2020-06-22 17:00:00 25.3 23 Norte 40 Nordeste 0 -- -- 59
2020-06-22 16:00:00 25.7 22 Norte 41 Norte 0 -- -- 60
2020-06-22 15:00:00 25.2 25 Norte 42 Norte 0 -- -- 60
2020-06-22 14:00:00 25.1 28 Norte 45 Norte 0 -- -- 60
2020-06-22 13:00:00 24.9 22 Norte 45 Norte 0 -- -- 60
2020-06-22 12:00:00 24.4 22 Norte 40 Noroeste 0 -- -- 64
2020-06-22 11:00:00 23.2 23 Norte 41 Norte 0 -- -- 66
2020-06-22 10:00:00 22.6 19 Norte 35 Norte 0 -- -- 67
2020-06-22 09:00:00 21.9 21 Norte 36 Norte 0 -- -- 71
2020-06-22 08:00:00 21.5 19 Norte 32 Norte 0 -- -- 72
2020-06-22 07:00:00 21.4 21 Norte 37 Norte 0 -- -- 70
2020-06-22 06:00:00 21.6 20 Norte 38 Norte 0 -- -- 73
2020-06-22 05:00:00 21.7 19 Norte 36 Norte 0 -- -- 72
2020-06-22 04:00:00 21.7 20 Norte 35 Norte 0 -- -- 72
2020-06-22 03:00:00 21.8 21 Norte 36 Norte 0 -- -- 72
2020-06-22 02:00:00 21.8 20 Norte 34 Norte 0 -- -- 71
2020-06-22 01:00:00 21.8 20 Norte 36 Noroeste 0 -- -- 70
2020-06-22 00:00:00 22.1 17 Norte 37 Norte 0 -- -- 71
2020-06-21 23:00:00 22.1 23 Norte 41 Norte 0 -- -- 69
2020-06-21 22:00:00 22.3 25 Norte 42 Norte 0 -- -- 71
2020-06-21 21:00:00 22.7 20 Norte 38 Norte 0 -- -- 69
2020-06-21 20:00:00 23.7 19 Norte 40 Norte 0 -- -- 67
2020-06-21 19:00:00 24.3 23 Norte 39 Norte 0 -- -- 62
2020-06-21 18:00:00 25.1 22 Norte 40 Norte 0 -- -- 61
2020-06-21 17:00:00 25.8 20 Norte 44 Norte 0 -- -- 59
2020-06-21 16:00:00 26.3 19 Norte 41 Norte 0 -- -- 56
2020-06-21 15:00:00 26.2 20 Norte 40 Norte 0 -- -- 56
2020-06-21 14:00:00 26.1 21 Norte 40 Norte 0 -- -- 56
2020-06-21 13:00:00 25.3 22 Norte 38 Norte 0 -- -- 59
2020-06-21 12:00:00 24.3 21 Norte 36 Nordeste 0 -- -- 61
2020-06-21 11:00:00 23.6 22 Norte 37 Norte 0 -- -- 63
2020-06-21 10:00:00 23.2 18 Norte 40 Norte 0 -- -- 65
2020-06-21 09:00:00 22.5 19 Norte 35 Norte 0 -- -- 66
2020-06-21 08:00:00 22 19 Norte 36 Norte 0 -- -- 70
2020-06-21 07:00:00 21.7 17 Norte 35 Norte 0 -- -- 69
2020-06-21 06:00:00 21.6 18 Norte 32 Norte 0 -- -- 68
2020-06-21 05:00:00 21.7 15 Norte 33 Norte 0 -- -- 68
2020-06-21 04:00:00 21.9 18 Norte 34 Norte 0 -- -- 65
2020-06-21 03:00:00 22 15 Norte 36 Nordeste 0 -- -- 65
2020-06-21 02:00:00 22.2 18 Norte 33 Norte 0 -- -- 65
2020-06-21 01:00:00 22.2 18 Norte 34 Norte 0 -- -- 65
2020-06-21 00:00:00 22.2 20 Norte 40 Norte 0 -- -- 64
2020-06-20 23:00:00 22.5 18 Norte 33 Norte 0 -- -- 67
2020-06-20 22:00:00 22.5 17 Norte 35 Norte 0 -- -- 72
2020-06-20 21:00:00 22.6 19 Norte 39 Norte 0 -- -- 69
2020-06-20 20:00:00 23.4 21 Norte 37 Norte 0 -- -- 67
2020-06-20 19:00:00 24.1 21 Norte 38 Norte 0 -- -- 61
2020-06-20 18:00:00 25 21 Norte 38 Noroeste 0 -- -- 58
2020-06-20 17:00:00 24.8 24 Norte 39 Norte 0 -- -- 59
2020-06-20 16:00:00 24.8 24 Norte 44 Norte 0 -- -- 57
2020-06-20 15:00:00 25.3 21 Norte 40 Norte 0 -- -- 55
2020-06-20 14:00:00 24.8 25 Norte 39 Norte 0 -- -- 60
2020-06-20 13:00:00 24.9 24 Norte 41 Nordeste 0 -- -- 55
2020-06-20 12:00:00 24.6 21 Norte 36 Norte 0 -- -- 58
2020-06-20 11:00:00 24.4 22 Norte 36 Norte 0 -- -- 58
2020-06-20 10:00:00 23.8 17 Norte 34 Norte 0 -- -- 64
2020-06-20 09:00:00 22.5 14 Norte 32 Nordeste 0 -- -- 68
2020-06-20 08:00:00 22.2 17 Norte 33 Norte 0 -- -- 64
2020-06-20 07:00:00 21.8 16 Norte 30 Norte 0 -- -- 71
2020-06-20 06:00:00 21.8 17 Norte 28 Noroeste 0 -- -- 71
2020-06-20 05:00:00 22.1 15 Norte 31 Norte 0 -- -- 70
2020-06-20 04:00:00 22.1 15 Norte 30 Norte 0 -- -- 69
2020-06-20 03:00:00 22.2 17 Norte 30 Norte 0 -- -- 71
2020-06-20 02:00:00 22.2 14 Norte 30 Norte 0 -- -- 72
2020-06-20 01:00:00 22.3 19 Norte 35 Norte 0 -- -- 71
2020-06-20 00:00:00 22.4 18 Norte 36 Noroeste 0 -- -- 72
2020-06-19 23:00:00 22.6 18 Norte 39 Norte 0 -- -- 71
2020-06-19 22:00:00 22.6 22 Norte 39 Norte 0 -- -- 71
2020-06-19 21:00:00 23 18 Norte 37 Norte 0 -- -- 67
2020-06-19 20:00:00 23.5 18 Norte 36 Norte 0 -- -- 67
2020-06-19 19:00:00 24.9 20 Norte 36 Noroeste 0 -- -- 61
2020-06-19 18:00:00 25 22 Norte 38 Norte 0 -- -- 63
2020-06-19 17:00:00 25.3 24 Norte 37 Noroeste 0 -- -- 57
2020-06-19 16:00:00 25.7 19 Norte 35 Norte 0 -- -- 59
2020-06-19 15:00:00 25.5 19 Norte 35 Norte 0 -- -- 57
2020-06-19 14:00:00 25.2 19 Norte 32 Norte 0 -- -- 63
2020-06-19 13:00:00 25.2 17 Norte 32 Norte 0 -- -- 64
2020-06-19 12:00:00 24.6 20 Nordeste 35 Norte 0 -- -- 66
2020-06-19 11:00:00 24.1 20 Norte 29 Norte 0 -- -- 68
2020-06-19 10:00:00 23.8 15 Norte 30 Noroeste 0 -- -- 67
2020-06-19 09:00:00 23.4 15 Norte 27 Norte 0 -- -- 70
2020-06-19 08:00:00 22.3 14 Norte 28 Norte 0 -- -- 74
2020-06-19 07:00:00 21.7 13 Norte 24 Norte 0 -- -- 78
2020-06-19 06:00:00 21 9 Noroeste 26 Norte 0 -- -- 77
2020-06-19 05:00:00 21.5 11 Norte 22 Norte 0 -- -- 78
2020-06-19 04:00:00 21.6 13 Norte 24 Norte 0.2 -- -- 79
2020-06-19 03:00:00 21.7 12 Norte 26 Norte 0.8 -- -- 80
2020-06-19 02:00:00 22.2 12 Norte 29 Norte 0 -- -- 76
2020-06-19 01:00:00 22.2 12 Norte 28 Norte 0 -- -- 76
2020-06-19 00:00:00 22.1 14 Noroeste 30 Noroeste 0 -- -- 74
2020-06-18 23:00:00 22.2 18 Noroeste 32 Noroeste 0 -- -- 70
2020-06-18 22:00:00 22.2 15 Norte 34 Norte 0 -- -- 68
2020-06-18 21:00:00 22.7 19 Norte 36 Norte 0 -- -- 69
2020-06-18 20:00:00 24 19 Norte 39 Norte 0 -- -- 65
2020-06-18 19:00:00 24.5 23 Norte 41 Noroeste 0 -- -- 61
2020-06-18 18:00:00 25.5 20 Norte 38 Norte 0 -- -- 61
2020-06-18 17:00:00 26.2 19 Norte 40 Norte 0 -- -- 55
2020-06-18 16:00:00 26 22 Norte 43 Norte 0 -- -- 58
2020-06-18 15:00:00 25.8 24 Norte 45 Norte 0 -- -- 59
2020-06-18 14:00:00 25.8 26 Norte 46 Norte 0 -- -- 58
2020-06-18 13:00:00 26.2 23 Norte 43 Norte 0 -- -- 53
2020-06-18 12:00:00 25.6 25 Norte 42 Norte 0 -- -- 56
2020-06-18 11:00:00 25.6 21 Norte 37 Norte 0 -- -- 51
2020-06-18 10:00:00 24.6 17 Noroeste 32 Norte 0 -- -- 59
2020-06-18 09:00:00 23.2 14 Norte 29 Norte 0 -- -- 68
2020-06-18 08:00:00 21.8 12 Noroeste 20 Noroeste 0 -- -- 75
2020-06-18 07:00:00 21.4 9 Noroeste 19 Norte 0 -- -- 74
2020-06-18 06:00:00 21.8 9 Noroeste 21 Oeste 0 -- -- 74
2020-06-18 05:00:00 22 10 Noroeste 25 Noroeste 0 -- -- 75
2020-06-18 04:00:00 21.9 8 Norte 17 Norte 0 -- -- 74
2020-06-18 03:00:00 22.2 10 Norte 24 Noroeste 0 -- -- 72
2020-06-18 02:00:00 22.6 12 Norte 20 Norte 0 -- -- 72
2020-06-18 01:00:00 22.7 8 Norte 23 Noroeste 0 -- -- 71
2020-06-18 00:00:00 22.7 7 Noroeste 19 Norte 0 -- -- 76
2020-06-17 23:00:00 22.7 9 Norte 17 Norte 0 -- -- 82
2020-06-17 22:00:00 22.8 8 Nordeste 18 Nordeste 0 -- -- 80
2020-06-17 21:00:00 23 9 Nordeste 15 Norte 0 -- -- 78
2020-06-17 20:00:00 23.3 9 Nordeste 14 Nordeste 0 -- -- 78
2020-06-17 19:00:00 23.6 8 Nordeste 14 Este 0 -- -- 77
2020-06-17 18:00:00 23.7 7 Nordeste 14 Este 0 -- -- 77
2020-06-17 17:00:00 23.8 10 Nordeste 16 Norte 0 -- -- 75
2020-06-17 16:00:00 24.1 10 Este 18 Nordeste 0 -- -- 74
2020-06-17 15:00:00 24.1 12 Nordeste 23 Nordeste 0 -- -- 73
2020-06-17 14:00:00 25.2 14 Nordeste 26 Nordeste 0 -- -- 72
2020-06-17 13:00:00 24.6 18 Nordeste 28 Nordeste 0 -- -- 74
2020-06-17 12:00:00 24.9 15 Nordeste 26 Nordeste 0 -- -- 69
2020-06-17 11:00:00 24.5 12 Norte 24 Norte 0 -- -- 69
2020-06-17 10:00:00 23.3 13 Norte 21 Norte 0 -- -- 77
2020-06-17 09:00:00 22.9 8 Nordeste 15 Nordeste 0 -- -- 78
2020-06-17 08:00:00 22.4 6 Norte 12 Norte 0 -- -- 81
2020-06-17 07:00:00 22.2 4 Nordeste 22 Nordeste 0 -- -- 85
2020-06-17 06:00:00 22.2 11 Nordeste 22 Nordeste 0 -- -- 87
2020-06-17 05:00:00 22.3 14 Nordeste 30 Norte 0 -- -- 87
2020-06-17 04:00:00 22.3 20 Norte 36 Norte 0 -- -- 88
2020-06-17 03:00:00 22.6 22 Nordeste 32 Nordeste 0 -- -- 86
2020-06-17 02:00:00 23.5 15 Norte 32 Norte 0 -- -- 75
2020-06-17 01:00:00 23.1 18 Norte 39 Norte 0 -- -- 83
2020-06-17 00:00:00 23 22 Norte 37 Nordeste 0 -- -- 81
2020-06-16 23:00:00 22.7 23 Norte 36 Norte 0 -- -- 85
2020-06-16 22:00:00 23.4 17 Norte 33 Norte 0 -- -- 76
2020-06-16 21:00:00 24.2 18 Norte 35 Norte 0 -- -- 65
2020-06-16 20:00:00 24.7 18 Norte 37 Norte 0 -- -- 62
2020-06-16 19:00:00 25.9 19 Norte 37 Norte 0 -- -- 48
2020-06-16 18:00:00 25.3 21 Norte 35 Norte 0 -- -- 60
2020-06-16 17:00:00 24.2 20 Norte 34 Norte 0 -- -- 75
2020-06-16 16:00:00 24.5 15 Norte 28 Norte 0 -- -- 72
2020-06-16 15:00:00 24.9 15 Nordeste 24 Nordeste 0 -- -- 70
2020-06-16 14:00:00 25.1 12 Nordeste 23 Nordeste 0 -- -- 68
2020-06-16 13:00:00 25 12 Nordeste 22 Nordeste 0 -- -- 67
2020-06-16 12:00:00 24.9 14 Norte 21 Norte 0 -- -- 65
2020-06-16 11:00:00 24.3 11 Norte 19 Norte 0 -- -- 74
2020-06-16 10:00:00 23.9 12 Norte 20 Nordeste 0 -- -- 74
2020-06-16 09:00:00 22.9 9 Norte 21 Norte 0 -- -- 81
2020-06-16 08:00:00 21.8 6 Norte 10 Norte 0 -- -- 86
2020-06-16 07:00:00 21.7 4 Noroeste 14 Norte 0 -- -- 86
2020-06-16 06:00:00 22 6 Norte 15 Norte 0 -- -- 86
2020-06-16 05:00:00 21.7 4 Noroeste 12 Norte 0 -- -- 86
2020-06-16 04:00:00 22.2 8 Norte 19 Norte 0 -- -- 86
2020-06-16 03:00:00 22.3 10 Norte 21 Norte 0 -- -- 86
2020-06-16 02:00:00 22.5 10 Norte 22 Norte 0 -- -- 86
2020-06-16 01:00:00 22.8 13 Norte 22 Nordeste 0 -- -- 84
2020-06-16 00:00:00 22.8 12 Norte 24 Nordeste 0 -- -- 84
2020-06-15 23:00:00 22.8 13 Norte 23 Norte 0 -- -- 84
2020-06-15 22:00:00 23 14 Norte 26 Nordeste 0 -- -- 84
2020-06-15 21:00:00 23.5 14 Norte 27 Norte 0 -- -- 79
2020-06-15 20:00:00 24 13 Norte 35 Norte 0 -- -- 74
2020-06-15 19:00:00 25.1 16 Norte 35 Nordeste 0 -- -- 67
2020-06-15 18:00:00 24.4 21 Nordeste 35 Nordeste 0 -- -- 75
2020-06-15 17:00:00 24.8 19 Nordeste 35 Norte 0 -- -- 73
2020-06-15 16:00:00 24.9 23 Nordeste 33 Norte 0 -- -- 75
2020-06-15 15:00:00 24.9 22 Nordeste 32 Norte 0 -- -- 75
2020-06-15 14:00:00 24.8 23 Nordeste 35 Nordeste 0 -- -- 74
2020-06-15 13:00:00 25 18 Nordeste 30 Nordeste 0 -- -- 72
2020-06-15 12:00:00 24.7 15 Nordeste 27 Nordeste 0 -- -- 72
2020-06-15 11:00:00 24.4 15 Norte 21 Norte 0 -- -- 67
2020-06-15 10:00:00 24.3 7 Nordeste 11 Nordeste 0 -- -- 60
2020-06-15 09:00:00 23.1 3 Sudoeste 12 Sudoeste 0 -- -- 66
2020-06-15 08:00:00 21.2 3 Sudoeste 9 Oeste 0 -- -- 72
2020-06-15 07:00:00 21.2 3 Sudoeste 10 Sudoeste 0 -- -- 74
2020-06-15 06:00:00 21.7 5 Sudoeste 12 Sur 0 -- -- 75
2020-06-15 05:00:00 21.9 5 Sur 12 Sudoeste 0 -- -- 80
2020-06-15 04:00:00 21.9 5 Sur 10 Sur 0 -- -- 81
2020-06-15 03:00:00 21.9 5 Sudeste 9 Sur 0 -- -- 82
2020-06-15 02:00:00 21.9 5 Norte 12 Norte 0 -- -- 82
2020-06-15 01:00:00 22 8 Norte 21 Norte 0.2 -- -- 83
2020-06-15 00:00:00 22.1 10 Norte 26 Norte 0 -- -- 82
2020-06-14 23:00:00 22.4 12 Norte 28 Norte 0 -- -- 80
2020-06-14 22:00:00 22.5 13 Norte 24 Norte 0 -- -- 78
2020-06-14 21:00:00 22.6 15 Norte 32 Norte 0 -- -- 74
2020-06-14 20:00:00 22.9 14 Norte 27 Norte 0 -- -- 70
2020-06-14 19:00:00 23.2 15 Norte 30 Norte 0 -- -- 69
2020-06-14 18:00:00 23.3 14 Norte 22 Nordeste 0 -- -- 67
2020-06-14 17:00:00 23.7 6 Este 13 Nordeste 0 -- -- 64
2020-06-14 16:00:00 24.2 8 Este 14 Este 0 -- -- 62
2020-06-14 15:00:00 24.4 8 Este 14 Este 0 -- -- 62
2020-06-14 14:00:00 24.1 8 Este 15 Este 0 -- -- 64
2020-06-14 13:00:00 24.3 9 Este 16 Este 0 -- -- 63
2020-06-14 12:00:00 24.3 9 Nordeste 15 Este 0 -- -- 62
2020-06-14 11:00:00 23.6 8 Este 16 Este 0 -- -- 66
2020-06-14 10:00:00 23.1 9 Norte 17 Norte 0 -- -- 67
2020-06-14 09:00:00 22.6 8 Nordeste 14 Noroeste 0 -- -- 69
2020-06-14 08:00:00 20.3 6 Oeste 12 Oeste 0 -- -- 72
2020-06-14 07:00:00 18.9 8 Oeste 15 Oeste 0 -- -- 77
2020-06-14 06:00:00 19.3 6 Noroeste 13 Noroeste 0 -- -- 75
2020-06-14 05:00:00 19.3 9 Noroeste 12 Noroeste 0 -- -- 76
2020-06-14 04:00:00 20.1 6 Noroeste 11 Noroeste 0 -- -- 73
2020-06-14 03:00:00 19.9 8 Noroeste 11 Noroeste 0 -- -- 73
2020-06-14 02:00:00 19.7 7 Noroeste 13 Norte 0 -- -- 72
2020-06-14 01:00:00 20.3 7 Noroeste 13 Noroeste 0 -- -- 72
2020-06-14 00:00:00 21.5 7 Norte 16 Norte 0 -- -- 68
2020-06-13 23:00:00 21.7 8 Norte 18 Noroeste 0 -- -- 68
2020-06-13 22:00:00 21.9 9 Norte 20 Norte 0 -- -- 69
2020-06-13 21:00:00 22.3 9 Norte 22 Nordeste 0 -- -- 66
2020-06-13 20:00:00 23.1 12 Nordeste 23 Norte 0 -- -- 63
2020-06-13 19:00:00 23.8 14 Nordeste 23 Nordeste 0 -- -- 59
2020-06-13 18:00:00 24.2 12 Norte 20 Norte 0 -- -- 55
2020-06-13 17:00:00 24.2 10 Nordeste 18 Este 0 -- -- 56
2020-06-13 16:00:00 23.8 10 Este 18 Este 0 -- -- 58
2020-06-13 15:00:00 24.2 12 Este 19 Este 0 -- -- 60
2020-06-13 14:00:00 23.9 13 Este 21 Este 0 -- -- 63
2020-06-13 13:00:00 23.4 13 Este 19 Este 0 -- -- 61
2020-06-13 12:00:00 23.2 9 Nordeste 17 Este 0 -- -- 61
2020-06-13 11:00:00 22.2 7 Nordeste 15 Norte 0 -- -- 64
2020-06-13 10:00:00 22.3 5 Norte 16 Nordeste 0 -- -- 63
2020-06-13 09:00:00 21.4 4 Norte 15 Oeste 0 -- -- 66
2020-06-13 08:00:00 18.9 8 Noroeste 10 Noroeste 0 -- -- 75
2020-06-13 07:00:00 18.7 7 Oeste 9 Noroeste 0 -- -- 75
2020-06-13 06:00:00 19.9 5 Norte 12 Norte 0 -- -- 71
2020-06-13 05:00:00 20.1 4 Noroeste 9 Nordeste 0 -- -- 70
2020-06-13 04:00:00 20.9 5 Nordeste 17 Nordeste 0 -- -- 67
2020-06-13 03:00:00 20.9 9 Norte 16 Nordeste 0 -- -- 67
2020-06-13 02:00:00 20.9 6 Norte 21 Norte 0 -- -- 68
2020-06-13 01:00:00 21.2 8 Nordeste 22 Norte 0 -- -- 66
2020-06-13 00:00:00 21.2 7 Norte 22 Norte 0 -- -- 68
2020-06-12 23:00:00 21.3 12 Norte 32 Norte 0 -- -- 65
2020-06-12 22:00:00 21.4 15 Norte 26 Norte 0 -- -- 61
2020-06-12 21:00:00 21.6 16 Norte 33 Noroeste 0 -- -- 61
2020-06-12 20:00:00 21.9 15 Norte 28 Norte 0 -- -- 63
2020-06-12 19:00:00 22.2 15 Norte 27 Norte 0 -- -- 59
2020-06-12 18:00:00 22.3 14 Norte 31 Norte 0 -- -- 60
2020-06-12 17:00:00 22.9 16 Norte 28 Norte 0 -- -- 58
2020-06-12 16:00:00 22.6 17 Nordeste 32 Norte 0 -- -- 59
2020-06-12 15:00:00 22.5 21 Norte 33 Norte 0 -- -- 59
2020-06-12 14:00:00 22.7 20 Norte 31 Norte 0 -- -- 60
2020-06-12 13:00:00 22.5 15 Norte 28 Norte 0 -- -- 60
2020-06-12 12:00:00 22.6 16 Norte 31 Norte 0 -- -- 58
2020-06-12 11:00:00 23.2 16 Norte 28 Norte 0 -- -- 55
2020-06-12 10:00:00 22.9 13 Norte 30 Norte 0 -- -- 57
2020-06-12 09:00:00 21.4 15 Noroeste 30 Noroeste 0 -- -- 61
2020-06-12 08:00:00 20.6 10 Noroeste 19 Norte 0 -- -- 66
2020-06-12 07:00:00 20.4 10 Norte 20 Noroeste 0 -- -- 65
2020-06-12 06:00:00 20.3 6 Noroeste 22 Norte 0 -- -- 68
2020-06-12 05:00:00 20.5 13 Noroeste 26 Norte 0 -- -- 65
2020-06-12 04:00:00 20.6 11 Norte 18 Norte 0 -- -- 66
2020-06-12 03:00:00 20.7 9 Norte 20 Norte 0 -- -- 66
2020-06-12 02:00:00 20.8 13 Norte 24 Norte 0 -- -- 66
2020-06-12 01:00:00 21 5 Norte 21 Norte 0 -- -- 67
2020-06-12 00:00:00 21.1 10 Norte 21 Norte 0 -- -- 67
2020-06-11 23:00:00 21.2 9 Norte 22 Norte 0 -- -- 66
2020-06-11 22:00:00 21.3 10 Norte 21 Norte 0 -- -- 67
2020-06-11 21:00:00 21.5 10 Norte 30 Norte 0 -- -- 65
2020-06-11 20:00:00 21.8 13 Norte 24 Norte 0 -- -- 66
2020-06-11 19:00:00 21.9 13 Norte 25 Norte 0 -- -- 66
2020-06-11 18:00:00 21.9 9 Norte 18 Norte 0 -- -- 64
2020-06-11 17:00:00 22.1 11 Norte 21 Nordeste 0 -- -- 64
2020-06-11 16:00:00 22.2 13 Nordeste 21 Norte 0 -- -- 64
2020-06-11 15:00:00 22.4 12 Norte 22 Norte 0 -- -- 63
2020-06-11 14:00:00 22.4 10 Nordeste 21 Nordeste 0 -- -- 62
2020-06-11 13:00:00 22 13 Nordeste 19 Nordeste 0 -- -- 64
2020-06-11 12:00:00 22 13 Nordeste 22 Norte 0 -- -- 63
2020-06-11 11:00:00 21.7 11 Nordeste 20 Nordeste 0 -- -- 65
2020-06-11 10:00:00 21.4 11 Nordeste 19 Nordeste 0 -- -- 67
2020-06-11 09:00:00 21.3 11 Norte 21 Nordeste 0 -- -- 67
2020-06-11 08:00:00 21.2 13 Nordeste 19 Norte 0 -- -- 69
2020-06-11 07:00:00 21.2 11 Nordeste 22 Norte 0 -- -- 72
2020-06-11 06:00:00 21.1 12 Nordeste 22 Norte 0 -- -- 71
2020-06-11 05:00:00 21.2 13 Nordeste 21 Nordeste 0 -- -- 70
2020-06-11 04:00:00 21.2 13 Nordeste 22 Nordeste 0 -- -- 70
2020-06-11 03:00:00 21.3 14 Nordeste 23 Norte 0 -- -- 72
2020-06-11 02:00:00 21.4 13 Nordeste 24 Nordeste 0 -- -- 69
2020-06-11 01:00:00 21.5 13 Nordeste 24 Norte 0 -- -- 69
2020-06-11 00:00:00 21.6 13 Nordeste 22 Nordeste 0 -- -- 70
2020-06-10 23:00:00 21.4 12 Norte 28 Norte 0 -- -- 70
2020-06-10 22:00:00 21.4 13 Norte 32 Norte 0 -- -- 69
2020-06-10 21:00:00 21.6 12 Norte 26 Norte 0 -- -- 65
2020-06-10 20:00:00 22.1 14 Norte 28 Nordeste 0 -- -- 65
2020-06-10 19:00:00 22.4 15 Nordeste 27 Nordeste 0 -- -- 66
2020-06-10 18:00:00 22.9 14 Norte 25 Nordeste 0 -- -- 63
2020-06-10 17:00:00 23.4 14 Norte 26 Norte 0 -- -- 60
2020-06-10 16:00:00 23.9 16 Nordeste 30 Nordeste 0 -- -- 56
2020-06-10 15:00:00 24.1 15 Norte 28 Nordeste 0 -- -- 57
2020-06-10 14:00:00 23.7 17 Norte 27 Norte 0 -- -- 54
2020-06-10 13:00:00 23.4 16 Norte 27 Norte 0 -- -- 55
2020-06-10 12:00:00 22.4 14 Nordeste 23 Norte 0 -- -- 58
2020-06-10 11:00:00 22.2 15 Nordeste 24 Nordeste 0 -- -- 60
2020-06-10 10:00:00 22.2 14 Nordeste 22 Norte 0 -- -- 61
2020-06-10 09:00:00 21.6 14 Nordeste 23 Norte 0 -- -- 63
2020-06-10 08:00:00 21.3 14 Norte 24 Norte 0 -- -- 66
2020-06-10 07:00:00 21.2 14 Norte 23 Norte 0 -- -- 68
2020-06-10 06:00:00 21.3 13 Nordeste 25 Norte 0 -- -- 68
2020-06-10 05:00:00 21.2 11 Norte 23 Norte 0 -- -- 68
2020-06-10 04:00:00 21.3 10 Norte 21 Nordeste 0 -- -- 68
2020-06-10 03:00:00 21.5 12 Nordeste 24 Nordeste 0 -- -- 68
2020-06-10 02:00:00 21.5 16 Nordeste 29 Nordeste 0 -- -- 68
2020-06-10 01:00:00 21.6 16 Norte 30 Norte 0 -- -- 69
2020-06-10 00:00:00 21.8 19 Nordeste 31 Nordeste 0 -- -- 68
2020-06-09 23:00:00 22 16 Nordeste 29 Nordeste 0 -- -- 70
2020-06-09 22:00:00 22.2 17 Nordeste 30 Norte 0 -- -- 69
2020-06-09 21:00:00 22.4 17 Nordeste 30 Nordeste 0 -- -- 70
2020-06-09 20:00:00 23.3 13 Norte 25 Nordeste 0 -- -- 68
2020-06-09 19:00:00 23.3 13 Norte 25 Nordeste 0 -- -- 66
2020-06-09 18:00:00 23.5 17 Norte 28 Norte 0 -- -- 67
2020-06-09 17:00:00 23.7 12 Norte 24 Norte 0 -- -- 66
2020-06-09 16:00:00 23.4 16 Norte 28 Norte 0 -- -- 66
2020-06-09 15:00:00 23.8 17 Norte 30 Nordeste 0 -- -- 65
2020-06-09 14:00:00 24.6 17 Nordeste 30 Nordeste 0 -- -- 60
2020-06-09 13:00:00 24.2 21 Nordeste 30 Norte 0 -- -- 62
2020-06-09 12:00:00 24.2 18 Norte 30 Norte 0 -- -- 63
2020-06-09 11:00:00 23.8 23 Nordeste 34 Norte 0 -- -- 64
2020-06-09 10:00:00 23.2 21 Nordeste 31 Nordeste 0 -- -- 66
2020-06-09 09:00:00 21.9 21 Nordeste 32 Nordeste 0 -- -- 71
2020-06-09 08:00:00 21.9 10 Norte 29 Norte 0 -- -- 74
2020-06-09 07:00:00 21.5 13 Norte 31 Norte 0 -- -- 76
2020-06-09 06:00:00 21.6 13 Norte 28 Norte 0 -- -- 78
2020-06-09 05:00:00 21.6 19 Nordeste 27 Nordeste 0 -- -- 79
2020-06-09 04:00:00 21.9 15 Nordeste 24 Norte 0 -- -- 76
2020-06-09 03:00:00 21.9 16 Nordeste 27 Nordeste 0 -- -- 76
2020-06-09 02:00:00 22 16 Nordeste 27 Norte 0 -- -- 76
2020-06-09 01:00:00 22.1 19 Nordeste 30 Nordeste 0 -- -- 75
2020-06-09 00:00:00 22.4 11 Norte 23 Norte 0 -- -- 74
2020-06-08 23:00:00 22.3 12 Norte 26 Norte 0 -- -- 76
2020-06-08 22:00:00 22.4 12 Norte 24 Norte 0 -- -- 74
2020-06-08 21:00:00 22.6 13 Norte 23 Norte 0 -- -- 75
2020-06-08 20:00:00 23 12 Norte 28 Norte 0 -- -- 71
2020-06-08 19:00:00 23.3 15 Norte 28 Norte 0 -- -- 68
2020-06-08 18:00:00 23.6 16 Norte 30 Norte 0 -- -- 68
2020-06-08 17:00:00 24 17 Norte 33 Nordeste 0 -- -- 67
2020-06-08 16:00:00 24.5 20 Norte 33 Nordeste 0 -- -- 65
2020-06-08 15:00:00 25.3 19 Norte 37 Norte 0 -- -- 62
2020-06-08 14:00:00 25.6 18 Norte 35 Norte 0 -- -- 60
2020-06-08 13:00:00 25 19 Norte 32 Nordeste 0 -- -- 62
2020-06-08 12:00:00 24.4 21 Norte 34 Norte 0 -- -- 65
2020-06-08 11:00:00 24.3 19 Norte 33 Norte 0 -- -- 63
2020-06-08 10:00:00 23.7 19 Norte 34 Norte 0 -- -- 66
2020-06-08 09:00:00 22.6 17 Norte 31 Noroeste 0 -- -- 66
2020-06-08 08:00:00 21.1 14 Noroeste 30 Noroeste 0 -- -- 69
2020-06-08 07:00:00 20.1 15 Noroeste 31 Norte 0 -- -- 75
2020-06-08 06:00:00 20.2 15 Noroeste 28 Noroeste 0 -- -- 70
2020-06-08 05:00:00 19.8 6 Noroeste 15 Noroeste 0 -- -- 71
2020-06-08 04:00:00 20.1 7 Noroeste 13 Noroeste 0 -- -- 75
2020-06-08 03:00:00 20.8 6 Norte 21 Norte 0 -- -- 74
2020-06-08 02:00:00 21.1 10 Norte 22 Norte 0 -- -- 73
2020-06-08 01:00:00 21.5 8 Norte 19 Norte 0 -- -- 73
2020-06-08 00:00:00 21.8 8 Norte 22 Norte 0 -- -- 72
2020-06-07 23:00:00 22.2 10 Norte 22 Norte 0 -- -- 72
2020-06-07 22:00:00 22.2 13 Norte 23 Nordeste 0 -- -- 71
2020-06-07 21:00:00 22.3 13 Norte 26 Norte 0 -- -- 71
2020-06-07 20:00:00 22.6 16 Norte 27 Norte 0 -- -- 71
2020-06-07 19:00:00 23 17 Norte 31 Norte 0 -- -- 70
2020-06-07 18:00:00 23.8 20 Norte 35 Norte 0 -- -- 70
2020-06-07 17:00:00 25 22 Norte 37 Nordeste 0 -- -- 66
2020-06-07 16:00:00 25.5 20 Nordeste 38 Norte 0 -- -- 65
2020-06-07 15:00:00 25.8 20 Nordeste 35 Nordeste 0 -- -- 61
2020-06-07 14:00:00 25.7 19 Nordeste 33 Nordeste 0 -- -- 62
2020-06-07 13:00:00 25.2 20 Nordeste 30 Nordeste 0 -- -- 62
2020-06-07 12:00:00 25 19 Nordeste 31 Nordeste 0 -- -- 63
2020-06-07 11:00:00 24.6 17 Nordeste 29 Norte 0 -- -- 65
2020-06-07 10:00:00 24.1 16 Norte 27 Norte 0 -- -- 66
2020-06-07 09:00:00 23.1 15 Norte 26 Norte 0 -- -- 69
2020-06-07 08:00:00 21.1 6 Noroeste 12 Noroeste 0 -- -- 74
2020-06-07 07:00:00 21.1 5 Norte 12 Noroeste 0 -- -- 73
2020-06-07 06:00:00 21.4 5 Norte 12 Norte 0 -- -- 74
2020-06-07 05:00:00 21.4 4 Noroeste 7 Noroeste 0 -- -- 75
2020-06-07 04:00:00 21.9 3 Oeste 9 Noroeste 0 -- -- 81
2020-06-07 03:00:00 22.4 3 Sur 10 Este 0 -- -- 83
2020-06-07 02:00:00 22.3 5 Este 20 Este 0 -- -- 84
2020-06-07 01:00:00 22.4 9 Este 19 Este 0 -- -- 81
2020-06-07 00:00:00 22.7 6 Este 21 Este 0 -- -- 77